Weather at Kangerlussuaq Airport

Public forecast

Using degrees Celsius for public forecast. Weather courtesy of forecast.io.

Current aviation weather report (METAR) for Kangerlussuaq Airport

Retrieved 2020/10/30 02:50 UTC (1 hour ago):

BGSF 300250Z AUTO 06007KT 9999NDV -SHSN OVC026/// M10/M13 Q0998

Aviation forecast (TAF) for Kangerlussuaq Airport

Forecast is more than 6 hours old.

Retrieved 2020/10/29 18:00 UTC (10 hours ago):

TAF BGSF 291702Z 2918/2923 VRB05KT 9999 BKN100 TEMPO 2918/2923 BKN050